sensor_id;sensor_type;location;lat;lon;timestamp;temperature;humidity
38582;DHT22;24349;53.720;10.014;2023-04-24T00:01:27;12.50;99.90
38582;DHT22;24349;53.720;10.014;2023-04-24T00:03:55;12.40;99.90
38582;DHT22;24349;53.720;10.014;2023-04-24T00:06:25;12.40;99.90
38582;DHT22;24349;53.720;10.014;2023-04-24T00:08:59;12.40;99.90
38582;DHT22;24349;53.720;10.014;2023-04-24T00:11:26;12.30;99.90
38582;DHT22;24349;53.720;10.014;2023-04-24T00:13:52;12.30;99.90
38582;DHT22;24349;53.720;10.014;2023-04-24T00:16:18;12.30;99.90
38582;DHT22;24349;53.720;10.014;2023-04-24T00:18:43;12.20;99.90
38582;DHT22;24349;53.720;10.014;2023-04-24T00:21:10;12.20;99.90
38582;DHT22;24349;53.720;10.014;2023-04-24T00:23:36;12.10;99.90
38582;DHT22;24349;53.720;10.014;2023-04-24T00:26:02;12.20;99.90
38582;DHT22;24349;53.720;10.014;2023-04-24T00:28:28;12.10;99.90
38582;DHT22;24349;53.720;10.014;2023-04-24T00:30:53;12.10;99.90
38582;DHT22;24349;53.720;10.014;2023-04-24T00:33:19;12.10;99.90
38582;DHT22;24349;53.720;10.014;2023-04-24T00:35:45;12.10;99.90
38582;DHT22;24349;53.720;10.014;2023-04-24T00:38:11;12.00;99.90
38582;DHT22;24349;53.720;10.014;2023-04-24T00:40:37;12.00;99.90
38582;DHT22;24349;53.720;10.014;2023-04-24T00:43:02;12.00;99.90
38582;DHT22;24349;53.720;10.014;2023-04-24T00:45:28;12.00;99.90
38582;DHT22;24349;53.720;10.014;2023-04-24T00:47:53;11.90;99.90
38582;DHT22;24349;53.720;10.014;2023-04-24T00:50:20;11.90;99.90
38582;DHT22;24349;53.720;10.014;2023-04-24T00:52:46;11.90;99.90
38582;DHT22;24349;53.720;10.014;2023-04-24T00:55:12;11.90;99.90
38582;DHT22;24349;53.720;10.014;2023-04-24T00:57:38;11.90;99.90
38582;DHT22;24349;53.720;10.014;2023-04-24T01:00:05;11.80;99.90
38582;DHT22;24349;53.720;10.014;2023-04-24T01:02:33;11.90;99.90
38582;DHT22;24349;53.720;10.014;2023-04-24T01:05:00;11.90;99.90
38582;DHT22;24349;53.720;10.014;2023-04-24T01:07:27;11.90;99.90
38582;DHT22;24349;53.720;10.014;2023-04-24T01:09:52;11.90;99.90
38582;DHT22;24349;53.720;10.014;2023-04-24T01:12:19;11.90;99.90
38582;DHT22;24349;53.720;10.014;2023-04-24T01:14:45;11.80;99.90
38582;DHT22;24349;53.720;10.014;2023-04-24T01:17:11;11.80;99.90
38582;DHT22;24349;53.720;10.014;2023-04-24T01:19:37;11.80;99.90
38582;DHT22;24349;53.720;10.014;2023-04-24T01:22:09;11.70;99.90
38582;DHT22;24349;53.720;10.014;2023-04-24T01:24:36;11.70;99.90
38582;DHT22;24349;53.720;10.014;2023-04-24T01:27:02;11.60;99.90
38582;DHT22;24349;53.720;10.014;2023-04-24T01:29:27;11.60;99.90
38582;DHT22;24349;53.720;10.014;2023-04-24T01:31:53;11.60;99.90
38582;DHT22;24349;53.720;10.014;2023-04-24T01:34:20;11.60;99.90
38582;DHT22;24349;53.720;10.014;2023-04-24T01:36:46;11.70;99.90
38582;DHT22;24349;53.720;10.014;2023-04-24T01:39:12;11.70;99.90
38582;DHT22;24349;53.720;10.014;2023-04-24T01:41:38;11.60;99.90
38582;DHT22;24349;53.720;10.014;2023-04-24T01:44:04;11.50;99.90
38582;DHT22;24349;53.720;10.014;2023-04-24T01:46:30;11.50;99.90
38582;DHT22;24349;53.720;10.014;2023-04-24T01:48:59;11.60;99.90
38582;DHT22;24349;53.720;10.014;2023-04-24T01:51:25;11.60;99.90
38582;DHT22;24349;53.720;10.014;2023-04-24T01:53:50;11.70;99.90
38582;DHT22;24349;53.720;10.014;2023-04-24T01:56:16;11.70;99.90
38582;DHT22;24349;53.720;10.014;2023-04-24T01:58:42;11.70;99.90
38582;DHT22;24349;53.720;10.014;2023-04-24T02:01:08;11.70;99.90
38582;DHT22;24349;53.720;10.014;2023-04-24T02:03:34;11.80;99.90
38582;DHT22;24349;53.720;10.014;2023-04-24T02:05:59;11.80;99.90
38582;DHT22;24349;53.720;10.014;2023-04-24T02:08:25;11.70;99.90
38582;DHT22;24349;53.720;10.014;2023-04-24T02:10:50;11.70;99.90
38582;DHT22;24349;53.720;10.014;2023-04-24T02:13:16;11.60;99.90
38582;DHT22;24349;53.720;10.014;2023-04-24T02:15:42;11.50;99.90
38582;DHT22;24349;53.720;10.014;2023-04-24T02:18:07;11.50;99.90
38582;DHT22;24349;53.720;10.014;2023-04-24T02:20:33;11.40;99.90
38582;DHT22;24349;53.720;10.014;2023-04-24T02:23:02;11.40;99.90
38582;DHT22;24349;53.720;10.014;2023-04-24T02:25:27;11.40;99.90
38582;DHT22;24349;53.720;10.014;2023-04-24T02:27:53;11.50;99.90
38582;DHT22;24349;53.720;10.014;2023-04-24T02:30:19;11.50;99.90
38582;DHT22;24349;53.720;10.014;2023-04-24T02:32:45;11.40;99.90
38582;DHT22;24349;53.720;10.014;2023-04-24T02:35:10;11.40;99.90
38582;DHT22;24349;53.720;10.014;2023-04-24T02:37:36;11.40;99.90
38582;DHT22;24349;53.720;10.014;2023-04-24T02:40:02;11.30;99.90
38582;DHT22;24349;53.720;10.014;2023-04-24T02:42:28;11.40;99.90
38582;DHT22;24349;53.720;10.014;2023-04-24T02:44:53;11.40;99.90
38582;DHT22;24349;53.720;10.014;2023-04-24T02:47:19;11.30;99.90
38582;DHT22;24349;53.720;10.014;2023-04-24T02:49:44;11.30;99.90
38582;DHT22;24349;53.720;10.014;2023-04-24T02:52:10;11.30;99.90
38582;DHT22;24349;53.720;10.014;2023-04-24T02:54:36;11.30;99.90
38582;DHT22;24349;53.720;10.014;2023-04-24T02:57:01;11.20;99.90
38582;DHT22;24349;53.720;10.014;2023-04-24T02:59:27;11.20;99.90
38582;DHT22;24349;53.720;10.014;2023-04-24T03:01:54;11.10;99.90
38582;DHT22;24349;53.720;10.014;2023-04-24T03:04:20;11.10;99.90
38582;DHT22;24349;53.720;10.014;2023-04-24T03:06:45;11.10;99.90
38582;DHT22;24349;53.720;10.014;2023-04-24T03:09:11;11.00;99.90
38582;DHT22;24349;53.720;10.014;2023-04-24T03:11:37;11.00;99.90
38582;DHT22;24349;53.720;10.014;2023-04-24T03:14:02;10.80;99.90
38582;DHT22;24349;53.720;10.014;2023-04-24T03:16:28;10.80;99.90
38582;DHT22;24349;53.720;10.014;2023-04-24T03:18:54;10.60;99.90
38582;DHT22;24349;53.720;10.014;2023-04-24T03:21:19;10.50;99.90
38582;DHT22;24349;53.720;10.014;2023-04-24T03:23:45;10.50;99.90
38582;DHT22;24349;53.720;10.014;2023-04-24T03:26:10;10.50;99.90
38582;DHT22;24349;53.720;10.014;2023-04-24T03:28:36;10.50;99.90
38582;DHT22;24349;53.720;10.014;2023-04-24T03:31:03;10.50;99.90
38582;DHT22;24349;53.720;10.014;2023-04-24T03:33:29;10.50;99.90
38582;DHT22;24349;53.720;10.014;2023-04-24T03:35:55;10.50;99.90
38582;DHT22;24349;53.720;10.014;2023-04-24T03:38:20;10.60;99.90
38582;DHT22;24349;53.720;10.014;2023-04-24T03:40:46;10.50;99.90
38582;DHT22;24349;53.720;10.014;2023-04-24T03:43:12;10.60;99.90
38582;DHT22;24349;53.720;10.014;2023-04-24T03:45:37;10.60;99.90
38582;DHT22;24349;53.720;10.014;2023-04-24T03:48:03;10.60;99.90
38582;DHT22;24349;53.720;10.014;2023-04-24T03:50:28;10.70;99.90
38582;DHT22;24349;53.720;10.014;2023-04-24T03:52:54;10.70;99.90
38582;DHT22;24349;53.720;10.014;2023-04-24T03:55:20;10.60;99.90
38582;DHT22;24349;53.720;10.014;2023-04-24T03:57:46;10.60;99.90
38582;DHT22;24349;53.720;10.014;2023-04-24T04:00:12;10.60;99.90
38582;DHT22;24349;53.720;10.014;2023-04-24T04:02:37;10.60;99.90
38582;DHT22;24349;53.720;10.014;2023-04-24T04:05:03;10.50;99.90
38582;DHT22;24349;53.720;10.014;2023-04-24T04:07:29;10.40;99.90
38582;DHT22;24349;53.720;10.014;2023-04-24T04:09:55;10.50;99.90
38582;DHT22;24349;53.720;10.014;2023-04-24T04:12:20;10.50;99.90
38582;DHT22;24349;53.720;10.014;2023-04-24T04:14:46;10.40;99.90
38582;DHT22;24349;53.720;10.014;2023-04-24T04:17:12;10.50;99.90
38582;DHT22;24349;53.720;10.014;2023-04-24T04:19:37;10.50;99.90
38582;DHT22;24349;53.720;10.014;2023-04-24T04:22:03;10.50;99.90
38582;DHT22;24349;53.720;10.014;2023-04-24T04:24:28;10.50;99.90
38582;DHT22;24349;53.720;10.014;2023-04-24T04:26:54;10.50;99.90
38582;DHT22;24349;53.720;10.014;2023-04-24T04:29:22;10.50;99.90
38582;DHT22;24349;53.720;10.014;2023-04-24T04:31:48;10.40;99.90
38582;DHT22;24349;53.720;10.014;2023-04-24T04:34:13;10.40;99.90
38582;DHT22;24349;53.720;10.014;2023-04-24T04:36:40;10.50;99.90
38582;DHT22;24349;53.720;10.014;2023-04-24T04:39:06;10.50;99.90
38582;DHT22;24349;53.720;10.014;2023-04-24T04:41:32;10.60;99.90
38582;DHT22;24349;53.720;10.014;2023-04-24T04:44:00;10.60;99.90
38582;DHT22;24349;53.720;10.014;2023-04-24T04:46:27;10.60;99.90
38582;DHT22;24349;53.720;10.014;2023-04-24T04:48:53;10.60;99.90
38582;DHT22;24349;53.720;10.014;2023-04-24T04:51:19;10.70;99.90
38582;DHT22;24349;53.720;10.014;2023-04-24T04:53:45;10.70;99.90
38582;DHT22;24349;53.720;10.014;2023-04-24T04:56:11;10.80;99.90
38582;DHT22;24349;53.720;10.014;2023-04-24T04:58:37;10.90;99.90
38582;DHT22;24349;53.720;10.014;2023-04-24T05:01:03;11.00;99.90
38582;DHT22;24349;53.720;10.014;2023-04-24T05:03:28;11.10;99.90
38582;DHT22;24349;53.720;10.014;2023-04-24T05:05:54;11.30;99.90
38582;DHT22;24349;53.720;10.014;2023-04-24T05:08:19;11.40;99.90
38582;DHT22;24349;53.720;10.014;2023-04-24T05:10:45;11.40;99.90
38582;DHT22;24349;53.720;10.014;2023-04-24T05:13:11;11.40;99.90
38582;DHT22;24349;53.720;10.014;2023-04-24T05:15:36;11.40;99.90
38582;DHT22;24349;53.720;10.014;2023-04-24T05:18:02;11.30;99.90
38582;DHT22;24349;53.720;10.014;2023-04-24T05:20:28;11.30;99.90
38582;DHT22;24349;53.720;10.014;2023-04-24T05:22:54;11.30;99.90
38582;DHT22;24349;53.720;10.014;2023-04-24T05:25:19;11.30;99.90
38582;DHT22;24349;53.720;10.014;2023-04-24T05:27:45;11.50;99.90
38582;DHT22;24349;53.720;10.014;2023-04-24T05:30:11;11.60;99.90
38582;DHT22;24349;53.720;10.014;2023-04-24T05:32:37;11.70;99.90
38582;DHT22;24349;53.720;10.014;2023-04-24T05:35:03;11.90;98.20
38582;DHT22;24349;53.720;10.014;2023-04-24T05:37:29;11.80;91.70
38582;DHT22;24349;53.720;10.014;2023-04-24T05:39:54;12.20;99.90
38582;DHT22;24349;53.720;10.014;2023-04-24T05:42:20;12.20;93.60
38582;DHT22;24349;53.720;10.014;2023-04-24T05:44:46;12.30;89.90
38582;DHT22;24349;53.720;10.014;2023-04-24T05:47:11;12.20;92.80
38582;DHT22;24349;53.720;10.014;2023-04-24T05:49:37;12.40;91.60
38582;DHT22;24349;53.720;10.014;2023-04-24T05:52:02;12.40;83.40
38582;DHT22;24349;53.720;10.014;2023-04-24T05:54:29;12.30;78.90
38582;DHT22;24349;53.720;10.014;2023-04-24T05:56:55;12.20;90.30
38582;DHT22;24349;53.720;10.014;2023-04-24T05:59:21;12.10;89.90
38582;DHT22;24349;53.720;10.014;2023-04-24T06:01:47;12.40;93.70
38582;DHT22;24349;53.720;10.014;2023-04-24T06:04:12;12.50;78.50
38582;DHT22;24349;53.720;10.014;2023-04-24T06:06:41;12.70;70.40
38582;DHT22;24349;53.720;10.014;2023-04-24T06:09:06;12.70;63.60
38582;DHT22;24349;53.720;10.014;2023-04-24T06:11:32;13.00;69.20
38582;DHT22;24349;53.720;10.014;2023-04-24T06:13:58;12.70;61.80
38582;DHT22;24349;53.720;10.014;2023-04-24T06:16:24;12.70;62.70
38582;DHT22;24349;53.720;10.014;2023-04-24T06:18:49;12.80;75.80
38582;DHT22;24349;53.720;10.014;2023-04-24T06:21:16;12.80;54.00
38582;DHT22;24349;53.720;10.014;2023-04-24T06:23:42;12.70;47.90
38582;DHT22;24349;53.720;10.014;2023-04-24T06:26:07;12.80;43.90
38582;DHT22;24349;53.720;10.014;2023-04-24T06:28:33;13.30;38.70
38582;DHT22;24349;53.720;10.014;2023-04-24T06:30:58;13.30;38.20
38582;DHT22;24349;53.720;10.014;2023-04-24T06:33:24;13.20;21.20
38582;DHT22;24349;53.720;10.014;2023-04-24T06:35:50;13.40;18.50
38582;DHT22;24349;53.720;10.014;2023-04-24T06:38:15;13.50;10.90
38582;DHT22;24349;53.720;10.014;2023-04-24T06:40:41;13.70;99.90
38582;DHT22;24349;53.720;10.014;2023-04-24T06:43:06;13.80;99.90
38582;DHT22;24349;53.720;10.014;2023-04-24T06:45:32;13.80;1.00
38582;DHT22;24349;53.720;10.014;2023-04-24T06:47:58;14.10;1.00
38582;DHT22;24349;53.720;10.014;2023-04-24T06:50:24;14.20;99.90
38582;DHT22;24349;53.720;10.014;2023-04-24T06:52:49;14.10;42.90
38582;DHT22;24349;53.720;10.014;2023-04-24T06:55:15;13.80;1.00
38582;DHT22;24349;53.720;10.014;2023-04-24T06:57:42;14.00;1.00
38582;DHT22;24349;53.720;10.014;2023-04-24T07:00:08;14.00;99.90
38582;DHT22;24349;53.720;10.014;2023-04-24T07:02:34;14.00;1.00
38582;DHT22;24349;53.720;10.014;2023-04-24T07:05:00;14.40;99.90
38582;DHT22;24349;53.720;10.014;2023-04-24T07:07:26;14.20;1.00
38582;DHT22;24349;53.720;10.014;2023-04-24T07:09:52;14.10;99.90
38582;DHT22;24349;53.720;10.014;2023-04-24T07:12:19;14.10;99.90
38582;DHT22;24349;53.720;10.014;2023-04-24T07:14:47;14.10;99.90
38582;DHT22;24349;53.720;10.014;2023-04-24T07:17:12;13.90;99.90
38582;DHT22;24349;53.720;10.014;2023-04-24T07:19:38;14.00;99.90
38582;DHT22;24349;53.720;10.014;2023-04-24T07:22:04;13.60;1.00
38582;DHT22;24349;53.720;10.014;2023-04-24T07:24:30;13.50;99.90
38582;DHT22;24349;53.720;10.014;2023-04-24T07:26:57;13.70;28.90
38582;DHT22;24349;53.720;10.014;2023-04-24T07:29:23;13.30;99.90
38582;DHT22;24349;53.720;10.014;2023-04-24T07:31:49;13.30;99.90
38582;DHT22;24349;53.720;10.014;2023-04-24T07:34:14;13.20;99.90
38582;DHT22;24349;53.720;10.014;2023-04-24T07:36:41;13.60;99.90
38582;DHT22;24349;53.720;10.014;2023-04-24T07:39:06;14.40;99.90
38582;DHT22;24349;53.720;10.014;2023-04-24T07:41:32;14.60;99.90
38582;DHT22;24349;53.720;10.014;2023-04-24T07:43:58;15.30;11.50
38582;DHT22;24349;53.720;10.014;2023-04-24T07:46:24;15.80;99.90
38582;DHT22;24349;53.720;10.014;2023-04-24T07:48:50;15.50;1.00
38582;DHT22;24349;53.720;10.014;2023-04-24T07:51:16;14.80;1.00
38582;DHT22;24349;53.720;10.014;2023-04-24T07:53:42;14.20;91.20
38582;DHT22;24349;53.720;10.014;2023-04-24T07:56:08;13.90;99.90
38582;DHT22;24349;53.720;10.014;2023-04-24T07:58:34;13.70;99.90
38582;DHT22;24349;53.720;10.014;2023-04-24T08:01:00;13.50;99.90
38582;DHT22;24349;53.720;10.014;2023-04-24T08:03:26;13.40;99.90
38582;DHT22;24349;53.720;10.014;2023-04-24T08:05:51;13.30;99.90
38582;DHT22;24349;53.720;10.014;2023-04-24T08:08:18;13.10;1.00
38582;DHT22;24349;53.720;10.014;2023-04-24T08:10:44;13.10;1.00
38582;DHT22;24349;53.720;10.014;2023-04-24T08:13:10;12.90;99.90
38582;DHT22;24349;53.720;10.014;2023-04-24T08:15:36;13.00;1.00
38582;DHT22;24349;53.720;10.014;2023-04-24T08:18:02;13.00;99.90
38582;DHT22;24349;53.720;10.014;2023-04-24T08:20:28;13.10;1.00
38582;DHT22;24349;53.720;10.014;2023-04-24T08:22:53;13.00;99.90
38582;DHT22;24349;53.720;10.014;2023-04-24T08:25:20;13.00;78.70
38582;DHT22;24349;53.720;10.014;2023-04-24T08:27:48;13.00;1.00
38582;DHT22;24349;53.720;10.014;2023-04-24T08:30:14;13.40;99.90
38582;DHT22;24349;53.720;10.014;2023-04-24T08:32:39;13.50;27.90
38582;DHT22;24349;53.720;10.014;2023-04-24T08:35:05;13.50;1.00
38582;DHT22;24349;53.720;10.014;2023-04-24T08:37:31;13.40;1.00
38582;DHT22;24349;53.720;10.014;2023-04-24T08:39:57;13.40;1.00
38582;DHT22;24349;53.720;10.014;2023-04-24T08:42:23;13.30;99.90
38582;DHT22;24349;53.720;10.014;2023-04-24T08:44:50;13.20;99.90
38582;DHT22;24349;53.720;10.014;2023-04-24T08:47:16;13.30;12.30
38582;DHT22;24349;53.720;10.014;2023-04-24T08:49:42;13.20;62.00
38582;DHT22;24349;53.720;10.014;2023-04-24T08:52:08;13.10;99.90
38582;DHT22;24349;53.720;10.014;2023-04-24T08:54:35;13.10;99.90
38582;DHT22;24349;53.720;10.014;2023-04-24T08:57:02;13.00;1.00
38582;DHT22;24349;53.720;10.014;2023-04-24T08:59:30;12.90;1.00
38582;DHT22;24349;53.720;10.014;2023-04-24T09:01:56;13.00;28.10
38582;DHT22;24349;53.720;10.014;2023-04-24T09:04:23;12.90;89.90
38582;DHT22;24349;53.720;10.014;2023-04-24T09:06:51;13.20;1.00
38582;DHT22;24349;53.720;10.014;2023-04-24T09:09:20;13.10;99.90
38582;DHT22;24349;53.720;10.014;2023-04-24T09:11:46;13.10;1.00
38582;DHT22;24349;53.720;10.014;2023-04-24T09:14:15;13.10;1.00
38582;DHT22;24349;53.720;10.014;2023-04-24T09:16:42;13.00;99.90
38582;DHT22;24349;53.720;10.014;2023-04-24T09:19:07;13.00;99.90
38582;DHT22;24349;53.720;10.014;2023-04-24T09:21:34;13.20;99.90
38582;DHT22;24349;53.720;10.014;2023-04-24T09:24:02;13.10;1.00
38582;DHT22;24349;53.720;10.014;2023-04-24T09:26:30;13.10;99.90
38582;DHT22;24349;53.720;10.014;2023-04-24T09:28:57;13.10;1.00
38582;DHT22;24349;53.720;10.014;2023-04-24T09:31:23;13.40;1.00
38582;DHT22;24349;53.720;10.014;2023-04-24T09:34:05;13.50;1.00
38582;DHT22;24349;53.720;10.014;2023-04-24T09:36:38;13.50;99.90
38582;DHT22;24349;53.720;10.014;2023-04-24T09:39:10;13.50;99.90
38582;DHT22;24349;53.720;10.014;2023-04-24T09:41:51;13.30;99.90
38582;DHT22;24349;53.720;10.014;2023-04-24T09:44:25;13.40;48.60
38582;DHT22;24349;53.720;10.014;2023-04-24T09:46:54;13.30;99.90
38582;DHT22;24349;53.720;10.014;2023-04-24T09:49:24;13.20;1.00
38582;DHT22;24349;53.720;10.014;2023-04-24T09:51:50;13.20;99.90
38582;DHT22;24349;53.720;10.014;2023-04-24T09:54:20;13.50;99.90
38582;DHT22;24349;53.720;10.014;2023-04-24T09:56:48;13.90;90.50
38582;DHT22;24349;53.720;10.014;2023-04-24T09:59:16;14.50;1.00
38582;DHT22;24349;53.720;10.014;2023-04-24T10:01:42;15.00;99.90
38582;DHT22;24349;53.720;10.014;2023-04-24T10:04:21;14.70;47.10
38582;DHT22;24349;53.720;10.014;2023-04-24T10:06:49;14.30;99.90
38582;DHT22;24349;53.720;10.014;2023-04-24T10:09:15;14.00;99.90
38582;DHT22;24349;53.720;10.014;2023-04-24T10:11:43;14.00;99.90
38582;DHT22;24349;53.720;10.014;2023-04-24T10:14:18;13.80;99.90
38582;DHT22;24349;53.720;10.014;2023-04-24T10:16:44;13.50;1.00
38582;DHT22;24349;53.720;10.014;2023-04-24T10:19:12;13.40;99.90
38582;DHT22;24349;53.720;10.014;2023-04-24T10:21:40;13.40;1.00
38582;DHT22;24349;53.720;10.014;2023-04-24T10:24:08;13.20;13.70
38582;DHT22;24349;53.720;10.014;2023-04-24T10:26:34;13.20;1.00
38582;DHT22;24349;53.720;10.014;2023-04-24T10:29:01;13.20;1.00
38582;DHT22;24349;53.720;10.014;2023-04-24T10:31:29;13.00;94.20
38582;DHT22;24349;53.720;10.014;2023-04-24T10:33:56;13.10;99.90
38582;DHT22;24349;53.720;10.014;2023-04-24T10:36:24;13.20;20.60
38582;DHT22;24349;53.720;10.014;2023-04-24T10:38:53;13.30;99.90
38582;DHT22;24349;53.720;10.014;2023-04-24T10:41:20;13.60;99.90
38582;DHT22;24349;53.720;10.014;2023-04-24T10:44:03;13.80;1.00
38582;DHT22;24349;53.720;10.014;2023-04-24T10:46:30;13.90;4.70
38582;DHT22;24349;53.720;10.014;2023-04-24T10:48:56;13.70;1.00
38582;DHT22;24349;53.720;10.014;2023-04-24T10:51:24;13.90;1.00
38582;DHT22;24349;53.720;10.014;2023-04-24T10:53:50;13.80;99.90
38582;DHT22;24349;53.720;10.014;2023-04-24T10:56:17;13.60;99.90
38582;DHT22;24349;53.720;10.014;2023-04-24T10:58:45;13.60;99.90
38582;DHT22;24349;53.720;10.014;2023-04-24T11:01:30;13.60;99.90
38582;DHT22;24349;53.720;10.014;2023-04-24T11:03:58;13.90;99.90
38582;DHT22;24349;53.720;10.014;2023-04-24T11:06:34;13.90;99.90
38582;DHT22;24349;53.720;10.014;2023-04-24T11:09:08;13.90;99.90
38582;DHT22;24349;53.720;10.014;2023-04-24T11:11:36;13.80;83.60
38582;DHT22;24349;53.720;10.014;2023-04-24T11:14:05;13.80;99.90
38582;DHT22;24349;53.720;10.014;2023-04-24T11:16:35;14.00;99.90
38582;DHT22;24349;53.720;10.014;2023-04-24T11:19:09;14.00;6.50
38582;DHT22;24349;53.720;10.014;2023-04-24T11:27:15;14.30;1.00
38582;DHT22;24349;53.720;10.014;2023-04-24T11:32:40;14.30;99.90
38582;DHT22;24349;53.720;10.014;2023-04-24T11:35:08;14.10;99.90
38582;DHT22;24349;53.720;10.014;2023-04-24T11:37:40;14.10;1.00
38582;DHT22;24349;53.720;10.014;2023-04-24T11:40:10;14.00;99.90
38582;DHT22;24349;53.720;10.014;2023-04-24T11:42:37;13.90;99.90
38582;DHT22;24349;53.720;10.014;2023-04-24T11:45:17;14.20;99.90
38582;DHT22;24349;53.720;10.014;2023-04-24T11:47:44;14.30;99.90
38582;DHT22;24349;53.720;10.014;2023-04-24T11:50:12;14.40;99.90
38582;DHT22;24349;53.720;10.014;2023-04-24T11:52:40;14.40;99.90
38582;DHT22;24349;53.720;10.014;2023-04-24T11:55:24;14.30;99.90
38582;DHT22;24349;53.720;10.014;2023-04-24T11:57:59;14.30;99.90
38582;DHT22;24349;53.720;10.014;2023-04-24T12:00:27;14.70;99.90
38582;DHT22;24349;53.720;10.014;2023-04-24T12:03:10;15.00;99.90
38582;DHT22;24349;53.720;10.014;2023-04-24T12:05:37;14.50;99.90
38582;DHT22;24349;53.720;10.014;2023-04-24T12:08:02;14.50;99.90
38582;DHT22;24349;53.720;10.014;2023-04-24T12:10:30;14.10;99.90
38582;DHT22;24349;53.720;10.014;2023-04-24T12:12:57;14.00;99.90
38582;DHT22;24349;53.720;10.014;2023-04-24T12:15:23;14.00;99.90
38582;DHT22;24349;53.720;10.014;2023-04-24T12:17:53;14.20;99.90
38582;DHT22;24349;53.720;10.014;2023-04-24T12:20:26;14.00;99.90
38582;DHT22;24349;53.720;10.014;2023-04-24T12:22:56;14.00;99.90
38582;DHT22;24349;53.720;10.014;2023-04-24T12:25:24;13.70;99.90
38582;DHT22;24349;53.720;10.014;2023-04-24T12:30:30;13.80;99.90
38582;DHT22;24349;53.720;10.014;2023-04-24T12:33:00;14.10;99.90
38582;DHT22;24349;53.720;10.014;2023-04-24T12:35:30;13.90;99.90
38582;DHT22;24349;53.720;10.014;2023-04-24T12:38:08;13.80;99.90
38582;DHT22;24349;53.720;10.014;2023-04-24T12:40:34;14.00;99.90
38582;DHT22;24349;53.720;10.014;2023-04-24T12:43:00;13.90;99.90
38582;DHT22;24349;53.720;10.014;2023-04-24T12:45:26;13.80;99.90
38582;DHT22;24349;53.720;10.014;2023-04-24T12:47:53;13.70;99.90
38582;DHT22;24349;53.720;10.014;2023-04-24T12:50:18;13.60;99.90
38582;DHT22;24349;53.720;10.014;2023-04-24T12:52:44;13.50;99.90
38582;DHT22;24349;53.720;10.014;2023-04-24T12:55:10;13.40;99.90
38582;DHT22;24349;53.720;10.014;2023-04-24T12:57:39;13.20;99.90
38582;DHT22;24349;53.720;10.014;2023-04-24T13:00:06;13.10;99.90
38582;DHT22;24349;53.720;10.014;2023-04-24T13:02:33;13.00;99.90
38582;DHT22;24349;53.720;10.014;2023-04-24T13:04:59;13.00;1.00
38582;DHT22;24349;53.720;10.014;2023-04-24T13:07:26;13.10;99.90
38582;DHT22;24349;53.720;10.014;2023-04-24T13:09:52;13.00;99.90
38582;DHT22;24349;53.720;10.014;2023-04-24T13:12:19;12.90;99.90
38582;DHT22;24349;53.720;10.014;2023-04-24T13:14:45;12.80;99.90
38582;DHT22;24349;53.720;10.014;2023-04-24T13:17:11;12.80;99.90
38582;DHT22;24349;53.720;10.014;2023-04-24T13:19:39;13.00;99.90
38582;DHT22;24349;53.720;10.014;2023-04-24T13:22:05;13.00;99.90
38582;DHT22;24349;53.720;10.014;2023-04-24T13:24:31;13.00;99.90
38582;DHT22;24349;53.720;10.014;2023-04-24T13:26:57;13.10;99.90
38582;DHT22;24349;53.720;10.014;2023-04-24T13:29:23;13.00;99.90
38582;DHT22;24349;53.720;10.014;2023-04-24T13:31:53;12.90;99.90
38582;DHT22;24349;53.720;10.014;2023-04-24T13:34:20;12.80;99.90
38582;DHT22;24349;53.720;10.014;2023-04-24T13:36:46;12.70;99.90
38582;DHT22;24349;53.720;10.014;2023-04-24T13:39:12;12.60;99.90
38582;DHT22;24349;53.720;10.014;2023-04-24T13:41:37;12.60;1.00
38582;DHT22;24349;53.720;10.014;2023-04-24T13:44:04;12.50;39.30
38582;DHT22;24349;53.720;10.014;2023-04-24T13:46:30;12.50;99.90
38582;DHT22;24349;53.720;10.014;2023-04-24T13:48:56;12.70;99.90
38582;DHT22;24349;53.720;10.014;2023-04-24T13:51:22;12.60;99.90
38582;DHT22;24349;53.720;10.014;2023-04-24T13:53:48;12.30;99.90
38582;DHT22;24349;53.720;10.014;2023-04-24T13:56:14;12.40;99.90
38582;DHT22;24349;53.720;10.014;2023-04-24T13:58:40;12.30;99.90
38582;DHT22;24349;53.720;10.014;2023-04-24T14:01:05;12.30;1.00
38582;DHT22;24349;53.720;10.014;2023-04-24T14:03:32;12.50;80.20
38582;DHT22;24349;53.720;10.014;2023-04-24T14:05:58;12.50;99.90
38582;DHT22;24349;53.720;10.014;2023-04-24T14:08:24;12.40;70.70
38582;DHT22;24349;53.720;10.014;2023-04-24T14:10:50;12.50;99.90
38582;DHT22;24349;53.720;10.014;2023-04-24T14:13:16;12.30;14.90
38582;DHT22;24349;53.720;10.014;2023-04-24T14:15:41;12.40;99.90
38582;DHT22;24349;53.720;10.014;2023-04-24T14:18:07;12.60;99.90
38582;DHT22;24349;53.720;10.014;2023-04-24T14:20:33;12.80;99.90
38582;DHT22;24349;53.720;10.014;2023-04-24T14:22:58;12.80;1.00
38582;DHT22;24349;53.720;10.014;2023-04-24T14:25:25;12.70;1.00
38582;DHT22;24349;53.720;10.014;2023-04-24T14:27:50;12.50;99.90
38582;DHT22;24349;53.720;10.014;2023-04-24T14:30:17;12.60;1.00
38582;DHT22;24349;53.720;10.014;2023-04-24T14:32:42;12.50;99.90
38582;DHT22;24349;53.720;10.014;2023-04-24T14:35:08;12.50;99.90
38582;DHT22;24349;53.720;10.014;2023-04-24T14:37:34;12.40;99.90
38582;DHT22;24349;53.720;10.014;2023-04-24T14:40:01;12.20;99.90
38582;DHT22;24349;53.720;10.014;2023-04-24T14:42:27;11.60;41.10
38582;DHT22;24349;53.720;10.014;2023-04-24T14:44:54;11.60;92.80
38582;DHT22;24349;53.720;10.014;2023-04-24T14:47:20;11.60;93.70
38582;DHT22;24349;53.720;10.014;2023-04-24T14:49:47;11.50;99.90
38582;DHT22;24349;53.720;10.014;2023-04-24T14:52:13;11.40;99.90
38582;DHT22;24349;53.720;10.014;2023-04-24T14:54:39;10.90;99.90
38582;DHT22;24349;53.720;10.014;2023-04-24T14:57:05;10.50;99.90
38582;DHT22;24349;53.720;10.014;2023-04-24T14:59:31;10.50;99.90
38582;DHT22;24349;53.720;10.014;2023-04-24T15:01:57;10.40;99.90
38582;DHT22;24349;53.720;10.014;2023-04-24T15:04:27;10.40;99.90
38582;DHT22;24349;53.720;10.014;2023-04-24T15:06:53;10.30;99.90
38582;DHT22;24349;53.720;10.014;2023-04-24T15:09:20;10.40;99.90
38582;DHT22;24349;53.720;10.014;2023-04-24T15:11:46;10.50;99.90
38582;DHT22;24349;53.720;10.014;2023-04-24T15:14:12;10.50;99.90
38582;DHT22;24349;53.720;10.014;2023-04-24T15:16:38;10.80;99.90
38582;DHT22;24349;53.720;10.014;2023-04-24T15:19:03;10.60;99.90
38582;DHT22;24349;53.720;10.014;2023-04-24T15:21:29;10.70;99.90
38582;DHT22;24349;53.720;10.014;2023-04-24T15:23:55;10.60;99.90
38582;DHT22;24349;53.720;10.014;2023-04-24T15:26:21;10.60;99.90